Time;durP1;ratioP1;P1;durP2;ratioP2;P2;SDS_P1;SDS_P2;PMS_P1;PMS_P2;Temp;Humidity;BMP_temperature;BMP_pressure;BME280_temperature;BME280_humidity;BME280_pressure;Samples;Min_cycle;Max_cycle;Signal;HPM_P1;HPM_P2
2023/08/12 00:01:38;;;;;;;3.43;3.23;;;16.20;99.90;;;;;;5082795;28;20167;-78
2023/08/12 00:04:04;;;;;;;3.27;3.07;;;16.10;99.90;;;;;;5085404;28;20193;-78
2023/08/12 00:06:29;;;;;;;3.00;2.80;;;16.20;99.90;;;;;;5090487;28;20179;-78
2023/08/12 00:08:55;;;;;;;3.30;3.10;;;16.10;99.90;;;;;;5085949;28;20258;-80
2023/08/12 00:11:21;;;;;;;3.03;2.90;;;16.00;99.90;;;;;;5089316;28;20181;-80
2023/08/12 00:13:49;;;;;;;3.33;3.13;;;16.00;99.90;;;;;;5083240;28;20186;-77
2023/08/12 00:16:15;;;;;;;3.73;3.53;;;16.00;99.90;;;;;;5083107;28;20183;-78
2023/08/12 00:18:41;;;;;;;3.17;3.00;;;16.00;99.90;;;;;;5063834;28;20214;-79
2023/08/12 00:21:09;;;;;;;2.90;2.80;;;16.00;99.90;;;;;;5090343;28;20163;-78
2023/08/12 00:23:40;;;;;;;3.93;3.03;;;16.00;99.90;;;;;;5063885;28;20171;-77
2023/08/12 00:26:07;;;;;;;3.80;3.50;;;16.10;99.90;;;;;;5081569;28;20163;-78
2023/08/12 00:28:33;;;;;;;3.37;3.20;;;16.10;99.90;;;;;;5081288;28;20312;-79
2023/08/12 00:30:59;;;;;;;2.80;2.67;;;16.00;99.90;;;;;;5082053;28;20189;-79
2023/08/12 00:33:26;;;;;;;3.37;3.17;;;16.00;99.90;;;;;;5081499;28;20229;-79
2023/08/12 00:35:52;;;;;;;4.27;3.63;;;16.00;99.90;;;;;;5081867;28;20189;-78
2023/08/12 00:38:18;;;;;;;3.27;3.07;;;16.00;99.90;;;;;;5083473;28;20261;-80
2023/08/12 00:40:44;;;;;;;3.40;3.20;;;15.90;99.90;;;;;;5083033;28;20183;-78
2023/08/12 00:43:10;;;;;;;3.20;3.00;;;15.90;99.90;;;;;;5081613;28;20242;-78
2023/08/12 00:45:36;;;;;;;3.27;2.83;;;15.90;99.90;;;;;;5082321;28;20171;-77
2023/08/12 00:48:05;;;;;;;3.33;3.13;;;15.90;99.90;;;;;;5063676;28;20585;-78
2023/08/12 00:50:31;;;;;;;3.67;3.40;;;15.90;99.90;;;;;;5064490;28;20511;-77
2023/08/12 00:52:58;;;;;;;3.50;3.30;;;16.00;99.90;;;;;;5088839;28;20186;-79
2023/08/12 00:55:26;;;;;;;3.13;2.93;;;16.00;99.90;;;;;;5064448;28;20270;-78
2023/08/12 00:57:52;;;;;;;3.77;3.47;;;16.00;99.90;;;;;;5080650;28;20574;-79
2023/08/12 01:00:20;;;;;;;3.67;3.43;;;16.00;99.90;;;;;;5082534;28;20181;-78
2023/08/12 01:02:53;;;;;;;3.13;2.93;;;15.90;99.90;;;;;;5093244;28;20162;-79
2023/08/12 01:05:22;;;;;;;3.90;3.60;;;15.90;99.90;;;;;;5091540;28;20171;-79
2023/08/12 01:07:49;;;;;;;3.50;3.13;;;15.90;99.90;;;;;;5084972;28;20201;-78
2023/08/12 01:10:16;;;;;;;3.10;2.90;;;15.90;99.90;;;;;;5065648;28;20207;-78
2023/08/12 01:12:51;;;;;;;5.03;3.13;;;15.90;99.90;;;;;;5062624;28;20179;-80
2023/08/12 01:15:26;;;;;;;3.17;3.00;;;15.90;99.90;;;;;;5096550;28;20147;-77
2023/08/12 01:17:55;;;;;;;3.90;2.80;;;15.80;99.90;;;;;;5085738;28;20341;-78
2023/08/12 01:20:25;;;;;;;3.00;2.90;;;15.80;99.90;;;;;;5062954;28;20175;-76
2023/08/12 01:23:14;;;;;;;3.33;3.13;;;15.70;99.90;;;;;;5081178;28;20213;-76
2023/08/12 01:25:42;;;;;;;3.30;3.10;;;15.80;99.90;;;;;;5057532;28;20202;-77
2023/08/12 01:28:08;;;;;;;3.50;3.10;;;15.70;99.90;;;;;;5085206;28;20233;-78
2023/08/12 01:30:56;;;;;;;4.17;3.40;;;15.70;99.90;;;;;;5080023;28;20189;-77
2023/08/12 01:33:42;;;;;;;3.73;3.03;;;15.60;99.90;;;;;;5079874;28;20657;-78
2023/08/12 01:36:17;;;;;;;3.43;3.23;;;15.60;99.90;;;;;;5064056;28;20183;-78
2023/08/12 01:38:46;;;;;;;3.30;3.10;;;15.60;99.90;;;;;;5079757;28;20225;-78
2023/08/12 01:41:15;;;;;;;3.30;3.10;;;15.60;99.90;;;;;;5080201;28;20183;-77
2023/08/12 01:43:42;;;;;;;3.47;3.27;;;15.60;99.90;;;;;;5080124;28;20221;-76
2023/08/12 01:46:07;;;;;;;3.40;3.20;;;15.60;99.90;;;;;;5080438;28;20516;-77
2023/08/12 01:48:33;;;;;;;3.43;3.23;;;15.60;99.90;;;;;;5080905;28;20207;-77
2023/08/12 01:51:03;;;;;;;3.43;3.23;;;15.60;99.90;;;;;;5080991;28;20179;-77
2023/08/12 01:53:30;;;;;;;3.50;3.20;;;15.70;99.90;;;;;;5065290;28;20176;-78
2023/08/12 01:55:55;;;;;;;3.03;2.83;;;15.50;99.90;;;;;;5089813;28;20170;-78
2023/08/12 01:58:21;;;;;;;3.40;3.20;;;15.50;99.90;;;;;;5086860;28;20220;-79
2023/08/12 02:00:47;;;;;;;3.53;3.33;;;15.60;99.90;;;;;;5094997;28;20154;-77
2023/08/12 02:03:13;;;;;;;3.30;3.10;;;15.60;99.90;;;;;;5094451;28;20192;-77
2023/08/12 02:05:40;;;;;;;3.33;3.13;;;15.60;99.90;;;;;;5089360;28;20171;-78
2023/08/12 02:08:06;;;;;;;3.67;3.33;;;15.60;99.90;;;;;;5061999;28;20203;-78
2023/08/12 02:10:35;;;;;;;3.50;3.20;;;15.70;99.90;;;;;;5061500;28;20653;-77
2023/08/12 02:13:03;;;;;;;3.53;3.33;;;15.70;99.90;;;;;;5079400;28;20191;-78
2023/08/12 02:15:28;;;;;;;3.50;3.30;;;15.70;99.90;;;;;;5061353;28;20175;-78
2023/08/12 02:17:54;;;;;;;3.30;3.10;;;15.70;99.90;;;;;;5079438;28;20322;-79
2023/08/12 02:20:20;;;;;;;3.93;3.63;;;15.70;99.90;;;;;;5079222;28;20182;-78
2023/08/12 02:22:46;;;;;;;3.53;2.93;;;15.80;99.90;;;;;;5078875;28;20236;-76
2023/08/12 02:25:13;;;;;;;2.83;2.73;;;15.80;99.90;;;;;;5079099;28;20186;-79
2023/08/12 02:27:39;;;;;;;3.33;3.13;;;15.80;99.90;;;;;;5079107;28;20298;-78
2023/08/12 02:30:15;;;;;;;3.67;3.37;;;15.70;99.90;;;;;;5080101;28;20193;-78
2023/08/12 02:32:43;;;;;;;3.43;3.17;;;15.70;99.90;;;;;;5081113;28;20175;-77
2023/08/12 02:35:10;;;;;;;2.87;2.70;;;15.60;99.90;;;;;;5073675;28;20176;-78
2023/08/12 02:37:36;;;;;;;3.30;3.10;;;15.60;99.90;;;;;;5080599;28;20694;-79
2023/08/12 02:40:04;;;;;;;3.90;3.50;;;15.50;99.90;;;;;;5095155;28;20176;-79
2023/08/12 02:42:30;;;;;;;3.27;3.07;;;15.60;99.90;;;;;;5079937;28;20173;-78
2023/08/12 02:44:57;;;;;;;4.17;3.40;;;15.60;99.90;;;;;;5080059;28;20194;-79
2023/08/12 02:47:23;;;;;;;3.63;3.43;;;15.60;99.90;;;;;;5083149;28;20164;-79
2023/08/12 02:49:49;;;;;;;3.60;3.30;;;15.50;99.90;;;;;;5065030;28;20179;-78
2023/08/12 02:52:15;;;;;;;3.50;3.30;;;15.50;99.90;;;;;;5090849;28;20178;-78
2023/08/12 02:54:42;;;;;;;2.90;2.80;;;15.50;99.90;;;;;;5079682;28;20519;-79
2023/08/12 02:57:08;;;;;;;3.43;3.10;;;15.50;99.90;;;;;;5062500;28;20229;-79
2023/08/12 02:59:33;;;;;;;3.53;3.33;;;15.50;99.90;;;;;;5078433;28;20210;-78
2023/08/12 03:01:59;;;;;;;3.73;3.30;;;15.40;99.90;;;;;;5078499;28;20203;-77
2023/08/12 03:04:25;;;;;;;3.60;3.33;;;15.40;99.90;;;;;;5081523;28;20186;-78
2023/08/12 03:06:51;;;;;;;3.27;2.97;;;15.40;99.90;;;;;;5079375;28;20162;-77
2023/08/12 03:09:18;;;;;;;3.40;3.10;;;15.30;99.90;;;;;;5076864;28;20179;-77
2023/08/12 03:11:44;;;;;;;3.23;3.03;;;15.30;99.90;;;;;;5075454;28;20169;-77
2023/08/12 03:14:10;;;;;;;3.30;3.10;;;15.20;99.90;;;;;;5077487;28;20191;-76
2023/08/12 03:16:36;;;;;;;3.17;3.03;;;15.20;99.90;;;;;;5078196;28;20692;-77
2023/08/12 03:19:01;;;;;;;3.57;3.27;;;15.20;99.90;;;;;;5077542;28;20210;-78
2023/08/12 03:21:27;;;;;;;3.57;3.37;;;15.20;99.90;;;;;;5077717;28;20630;-78
2023/08/12 03:23:53;;;;;;;3.40;3.20;;;15.20;99.90;;;;;;5077276;28;20715;-78
2023/08/12 03:26:19;;;;;;;3.50;3.30;;;15.10;99.90;;;;;;5059332;28;20184;-78
2023/08/12 03:28:45;;;;;;;3.20;3.10;;;15.10;99.90;;;;;;5059377;28;20706;-78
2023/08/12 03:31:11;;;;;;;3.30;3.00;;;15.00;99.90;;;;;;5085568;28;20185;-78
2023/08/12 03:33:37;;;;;;;3.90;3.60;;;15.00;99.90;;;;;;5084804;28;20224;-77
2023/08/12 03:36:03;;;;;;;3.67;3.40;;;15.00;99.90;;;;;;5077162;28;20180;-77
2023/08/12 03:38:29;;;;;;;3.27;3.07;;;14.90;99.90;;;;;;5077244;28;20199;-77
2023/08/12 03:40:55;;;;;;;3.53;3.33;;;14.90;99.90;;;;;;5077240;28;20167;-79
2023/08/12 03:43:20;;;;;;;3.40;3.20;;;14.90;99.90;;;;;;5080235;28;20262;-78
2023/08/12 03:45:47;;;;;;;4.57;2.93;;;14.80;99.90;;;;;;5092271;28;20195;-77
2023/08/12 03:48:13;;;;;;;3.40;3.10;;;14.80;99.90;;;;;;5096931;28;20181;-78
2023/08/12 03:50:39;;;;;;;3.73;3.40;;;14.70;99.90;;;;;;5087829;28;20181;-78
2023/08/12 03:53:06;;;;;;;3.40;3.10;;;14.70;99.90;;;;;;5077241;28;20178;-78
2023/08/12 03:55:33;;;;;;;4.30;3.90;;;14.70;99.90;;;;;;5076993;28;20167;-78
2023/08/12 03:57:59;;;;;;;3.07;2.97;;;14.70;99.90;;;;;;5081237;28;20218;-77
2023/08/12 04:00:25;;;;;;;3.37;3.10;;;14.70;99.90;;;;;;5067699;28;20175;-77
2023/08/12 04:02:53;;;;;;;3.10;2.90;;;14.60;99.90;;;;;;5076654;28;20722;-77
2023/08/12 04:05:18;;;;;;;3.13;2.93;;;14.70;99.90;;;;;;5039499;28;20274;-78
2023/08/12 04:07:44;;;;;;;3.60;3.10;;;14.60;99.90;;;;;;5063892;28;20194;-78
2023/08/12 04:10:10;;;;;;;2.90;2.80;;;14.60;99.90;;;;;;5083084;28;20233;-79
2023/08/12 04:12:36;;;;;;;3.40;3.20;;;14.60;99.90;;;;;;5077336;28;20257;-79
2023/08/12 04:15:04;;;;;;;3.20;3.00;;;14.60;99.90;;;;;;5078842;28;20649;-80
2023/08/12 04:17:30;;;;;;;3.30;3.00;;;14.50;99.90;;;;;;5079214;28;20216;-78
2023/08/12 04:19:56;;;;;;;3.40;3.20;;;14.50;99.90;;;;;;5076337;28;20293;-79
2023/08/12 04:22:22;;;;;;;3.30;3.20;;;14.50;99.90;;;;;;5076019;28;20176;-80
2023/08/12 04:24:47;;;;;;;3.17;2.97;;;14.40;99.90;;;;;;5076302;28;20175;-81
2023/08/12 04:27:13;;;;;;;3.50;3.30;;;14.40;99.90;;;;;;5093129;28;20304;-78
2023/08/12 04:29:39;;;;;;;3.00;2.80;;;14.40;99.90;;;;;;5082796;28;20170;-76
2023/08/12 04:32:05;;;;;;;3.17;3.00;;;14.50;99.90;;;;;;5079713;28;20516;-78
2023/08/12 04:34:31;;;;;;;3.10;2.90;;;14.40;99.90;;;;;;5078168;28;20549;-77
2023/08/12 04:36:57;;;;;;;3.27;3.10;;;14.40;99.90;;;;;;5076032;28;20179;-78
2023/08/12 04:39:22;;;;;;;3.97;3.03;;;14.50;99.90;;;;;;5076075;28;20211;-76
2023/08/12 04:41:48;;;;;;;3.20;3.00;;;14.50;99.90;;;;;;5075755;28;20176;-78
2023/08/12 04:44:14;;;;;;;3.13;3.00;;;14.50;99.90;;;;;;5075770;28;20171;-77
2023/08/12 04:46:40;;;;;;;3.67;3.13;;;14.50;99.90;;;;;;5075672;28;20183;-78
2023/08/12 04:49:06;;;;;;;3.43;3.23;;;14.60;99.90;;;;;;5076057;28;20273;-77
2023/08/12 04:51:31;;;;;;;3.50;3.17;;;14.60;99.90;;;;;;5057637;28;20182;-77
2023/08/12 04:53:57;;;;;;;3.57;3.27;;;14.60;99.90;;;;;;5057399;28;20175;-78
2023/08/12 04:56:24;;;;;;;3.40;3.20;;;14.60;99.90;;;;;;5075417;28;20171;-77
2023/08/12 04:58:50;;;;;;;3.73;3.43;;;14.70;99.90;;;;;;5075538;28;20272;-76
2023/08/12 05:01:15;;;;;;;3.10;2.90;;;14.70;99.90;;;;;;5057297;28;20667;-76
2023/08/12 05:03:41;;;;;;;3.20;3.00;;;14.70;99.90;;;;;;5075669;28;20299;-75
2023/08/12 05:06:07;;;;;;;3.70;3.40;;;14.80;99.90;;;;;;5077795;28;20207;-77
2023/08/12 05:08:33;;;;;;;3.90;3.60;;;14.80;99.90;;;;;;5087068;28;20176;-76
2023/08/12 05:10:58;;;;;;;3.07;2.97;;;14.80;99.90;;;;;;5075272;28;20171;-77
2023/08/12 05:13:24;;;;;;;3.30;3.10;;;14.80;99.90;;;;;;5075646;28;20222;-77
2023/08/12 05:15:50;;;;;;;3.40;3.20;;;14.90;99.90;;;;;;5075173;28;20199;-79
2023/08/12 05:18:16;;;;;;;3.20;2.90;;;15.00;99.90;;;;;;5075393;28;20208;-79
2023/08/12 05:20:42;;;;;;;3.10;2.90;;;15.10;99.90;;;;;;5057124;28;20588;-79
2023/08/12 05:23:08;;;;;;;3.30;3.10;;;15.20;99.90;;;;;;5075181;28;20213;-79
2023/08/12 05:25:34;;;;;;;3.30;3.10;;;15.30;99.90;;;;;;5075152;28;20207;-77
2023/08/12 05:28:00;;;;;;;4.20;2.97;;;15.40;99.90;;;;;;5075854;28;20316;-80
2023/08/12 05:30:26;;;;;;;3.40;3.20;;;15.40;99.90;;;;;;5054598;28;20158;-77
2023/08/12 05:32:52;;;;;;;4.60;3.30;;;15.60;99.90;;;;;;5054929;28;20347;-77
2023/08/12 05:35:17;;;;;;;3.43;3.13;;;15.60;99.90;;;;;;5054014;28;20247;-79
2023/08/12 05:37:43;;;;;;;3.60;3.40;;;15.70;99.90;;;;;;5054688;28;20641;-76
2023/08/12 05:40:09;;;;;;;3.53;3.27;;;15.90;99.90;;;;;;5054649;28;20168;-77
2023/08/12 05:42:36;;;;;;;2.97;2.80;;;16.00;99.90;;;;;;5054542;28;20258;-79
2023/08/12 05:45:03;;;;;;;3.43;3.13;;;16.10;99.90;;;;;;5054385;28;20254;-74
2023/08/12 05:47:29;;;;;;;3.40;3.20;;;16.20;99.90;;;;;;5054417;28;20254;-76
2023/08/12 05:49:54;;;;;;;3.60;3.30;;;16.30;99.90;;;;;;5057521;28;20235;-77
2023/08/12 05:52:20;;;;;;;3.40;3.20;;;16.30;99.90;;;;;;5069472;28;20560;-77
2023/08/12 05:54:46;;;;;;;3.70;3.40;;;16.40;99.90;;;;;;5061364;28;20168;-80
2023/08/12 05:57:21;;;;;;;3.57;3.37;;;16.50;99.90;;;;;;5192523;27;20574;-78
2023/08/12 05:59:47;;;;;;;3.70;3.40;;;16.60;99.90;;;;;;5160519;27;20630;-79
2023/08/12 06:02:13;;;;;;;5.93;2.87;;;16.70;99.90;;;;;;5167434;27;20163;-77
2023/08/12 06:04:38;;;;;;;3.70;3.40;;;16.70;99.90;;;;;;5162878;27;20206;-78
2023/08/12 06:07:04;;;;;;;3.60;3.30;;;16.70;99.90;;;;;;5151115;27;20540;-76
2023/08/12 06:09:30;;;;;;;3.67;3.33;;;16.80;99.90;;;;;;5152421;27;20169;-76
2023/08/12 06:11:56;;;;;;;3.77;3.50;;;17.00;99.90;;;;;;5152188;27;20582;-76
2023/08/12 06:14:21;;;;;;;3.90;3.57;;;17.10;99.90;;;;;;5150684;27;20183;-77
2023/08/12 06:16:47;;;;;;;4.57;3.90;;;17.20;99.90;;;;;;5152308;27;20208;-78
2023/08/12 06:19:13;;;;;;;3.53;3.30;;;17.20;99.90;;;;;;5152902;27;20183;-76
2023/08/12 06:21:39;;;;;;;3.60;3.30;;;17.30;99.90;;;;;;5154192;27;20184;-77
2023/08/12 06:24:05;;;;;;;3.30;3.10;;;17.30;99.90;;;;;;5155219;27;20251;-78
2023/08/12 06:26:31;;;;;;;3.60;3.30;;;17.40;99.90;;;;;;5162754;27;20190;-78
2023/08/12 06:28:59;;;;;;;4.50;3.47;;;17.40;99.90;;;;;;5166507;27;20169;-79
2023/08/12 06:31:24;;;;;;;3.50;3.30;;;17.50;99.90;;;;;;5154671;27;20179;-79
2023/08/12 06:33:50;;;;;;;6.67;3.60;;;17.60;99.90;;;;;;5153058;27;20168;-75
2023/08/12 06:36:16;;;;;;;3.73;3.37;;;17.60;99.90;;;;;;5152940;27;20621;-78
2023/08/12 06:38:42;;;;;;;3.77;3.30;;;17.70;99.90;;;;;;5152237;27;20512;-78
2023/08/12 06:41:07;;;;;;;3.67;3.40;;;17.70;99.90;;;;;;5151875;27;20169;-78
2023/08/12 06:43:33;;;;;;;3.60;3.30;;;17.80;99.90;;;;;;5155183;27;20224;-78
2023/08/12 06:45:59;;;;;;;2.70;2.60;;;17.90;99.90;;;;;;5151940;27;20713;-80
2023/08/12 06:48:25;;;;;;;3.90;3.33;;;18.00;99.90;;;;;;5152450;27;20208;-76
2023/08/12 06:50:55;;;;;;;3.50;3.10;;;18.10;99.90;;;;;;5157924;27;20171;-80
2023/08/12 06:53:21;;;;;;;3.67;3.30;;;18.20;99.90;;;;;;5156777;27;20175;-79
2023/08/12 06:55:46;;;;;;;4.53;3.80;;;18.30;99.90;;;;;;5152950;27;20299;-79
2023/08/12 06:58:14;;;;;;;4.60;3.20;;;18.40;99.90;;;;;;5154089;27;20196;-77
2023/08/12 07:00:41;;;;;;;3.10;2.90;;;18.50;99.90;;;;;;5151513;27;20288;-78
2023/08/12 07:03:08;;;;;;;3.30;3.10;;;18.50;99.90;;;;;;5152817;27;20203;-79
2023/08/12 07:05:34;;;;;;;3.17;3.00;;;18.50;99.90;;;;;;5153587;27;20590;-76
2023/08/12 07:08:00;;;;;;;3.57;3.37;;;18.70;99.90;;;;;;5146744;27;20193;-78
2023/08/12 07:10:26;;;;;;;3.30;3.10;;;18.80;99.90;;;;;;5158784;27;20161;-76
2023/08/12 07:12:51;;;;;;;3.07;2.87;;;18.90;99.90;;;;;;5148323;27;20694;-79
2023/08/12 07:15:17;;;;;;;3.40;3.10;;;18.90;99.90;;;;;;5154506;27;20209;-80
2023/08/12 07:17:43;;;;;;;3.27;3.07;;;19.00;99.90;;;;;;5155039;27;20181;-79
2023/08/12 07:20:12;;;;;;;3.30;3.10;;;19.10;99.90;;;;;;5153578;27;20169;-76
2023/08/12 07:22:37;;;;;;;3.43;3.13;;;19.20;99.90;;;;;;5148069;27;20179;-79
2023/08/12 07:25:03;;;;;;;4.30;3.10;;;19.20;99.90;;;;;;5160120;27;20157;-77
2023/08/12 07:27:29;;;;;;;3.10;2.90;;;19.30;99.90;;;;;;5160264;27;20179;-77
2023/08/12 07:29:56;;;;;;;3.17;3.00;;;19.40;99.90;;;;;;5161592;27;20703;-78
2023/08/12 07:32:23;;;;;;;4.77;3.13;;;19.60;99.90;;;;;;5160804;27;20157;-76
2023/08/12 07:34:49;;;;;;;2.73;2.53;;;19.70;99.90;;;;;;5151690;27;20196;-77
2023/08/12 07:37:15;;;;;;;2.80;2.70;;;19.90;99.90;;;;;;5144640;27;20212;-78
2023/08/12 07:39:40;;;;;;;3.63;3.07;;;20.00;99.90;;;;;;5153717;27;20179;-79
2023/08/12 07:42:06;;;;;;;3.53;3.23;;;20.10;99.90;;;;;;5154235;27;20185;-77
2023/08/12 07:44:32;;;;;;;5.17;3.07;;;20.20;99.90;;;;;;5140430;27;20201;-77
2023/08/12 07:46:58;;;;;;;3.17;2.93;;;20.30;99.90;;;;;;5146529;27;20173;-78
2023/08/12 07:49:24;;;;;;;3.43;3.17;;;20.40;99.90;;;;;;5144943;27;20170;-78
2023/08/12 07:51:51;;;;;;;4.13;2.80;;;20.50;99.90;;;;;;5145917;27;20169;-76
2023/08/12 07:54:17;;;;;;;3.10;2.97;;;20.50;99.90;;;;;;5138821;27;20173;-76
2023/08/12 07:56:42;;;;;;;3.70;3.30;;;20.60;99.90;;;;;;5137382;27;20225;-78
2023/08/12 07:59:08;;;;;;;3.83;3.03;;;20.60;99.90;;;;;;5137707;27;20166;-76
2023/08/12 08:01:34;;;;;;;3.10;2.90;;;20.60;99.90;;;;;;5137044;27;20646;-77
2023/08/12 08:04:00;;;;;;;4.20;2.70;;;20.70;99.90;;;;;;5137271;27;20252;-77
2023/08/12 08:06:25;;;;;;;3.03;2.83;;;20.80;99.90;;;;;;5137298;27;20176;-75
2023/08/12 08:08:51;;;;;;;3.20;3.00;;;20.80;99.90;;;;;;5136997;27;20181;-77
2023/08/12 08:11:17;;;;;;;4.80;3.70;;;20.90;99.90;;;;;;5137861;27;20173;-78
2023/08/12 08:13:43;;;;;;;2.80;2.70;;;20.90;99.90;;;;;;5151222;27;20181;-77
2023/08/12 08:16:08;;;;;;;3.43;2.80;;;21.00;99.90;;;;;;5137042;27;20192;-77
2023/08/12 08:18:34;;;;;;;3.60;3.30;;;21.10;99.90;;;;;;5138295;27;20256;-76
2023/08/12 08:21:00;;;;;;;3.10;2.90;;;21.10;99.90;;;;;;5143745;27;20296;-76
2023/08/12 08:23:26;;;;;;;3.20;3.03;;;21.20;99.90;;;;;;5140117;27;20256;-77
2023/08/12 08:25:52;;;;;;;3.30;3.10;;;21.30;99.90;;;;;;5140070;27;20193;-76
2023/08/12 08:28:17;;;;;;;3.07;2.87;;;21.40;99.90;;;;;;5136535;27;20197;-76
2023/08/12 08:30:43;;;;;;;4.63;2.93;;;21.40;99.90;;;;;;5136536;27;20173;-76
2023/08/12 08:33:09;;;;;;;2.87;2.60;;;21.50;99.90;;;;;;5136015;27;20513;-76
2023/08/12 08:35:35;;;;;;;2.93;2.73;;;21.60;99.90;;;;;;5136380;27;20200;-77
2023/08/12 08:38:01;;;;;;;3.03;2.90;;;21.60;99.90;;;;;;5136051;27;20199;-77
2023/08/12 08:40:27;;;;;;;2.93;2.73;;;21.60;99.90;;;;;;5136069;27;20176;-78
2023/08/12 08:42:53;;;;;;;3.47;3.00;;;21.70;99.90;;;;;;5135808;27;20177;-76
2023/08/12 08:45:21;;;;;;;3.20;3.00;;;21.70;99.90;;;;;;5135761;27;20268;-75
2023/08/12 08:47:48;;;;;;;3.00;2.80;;;21.60;99.90;;;;;;5135959;27;20173;-76
2023/08/12 08:50:15;;;;;;;2.90;2.80;;;21.60;99.90;;;;;;5135860;27;20268;-77
2023/08/12 08:52:43;;;;;;;2.90;2.80;;;21.60;99.90;;;;;;5135286;27;20258;-79
2023/08/12 08:55:09;;;;;;;2.90;2.70;;;21.70;99.90;;;;;;5134904;27;20177;-79
2023/08/12 08:57:37;;;;;;;2.87;2.73;;;21.70;99.90;;;;;;5135660;27;20169;-79
2023/08/12 09:00:07;;;;;;;3.00;2.80;;;21.80;99.90;;;;;;5136097;27;20226;-77
2023/08/12 09:02:33;;;;;;;3.00;2.90;;;22.90;99.90;;;;;;5141322;27;20157;-78
2023/08/12 09:05:01;;;;;;;2.83;2.63;;;22.10;99.90;;;;;;5144127;27;20169;-78
2023/08/12 09:07:29;;;;;;;2.47;2.37;;;22.10;99.90;;;;;;5148012;27;20157;-77
2023/08/12 09:09:56;;;;;;;3.23;2.80;;;22.20;99.90;;;;;;5138961;27;20271;-78
2023/08/12 09:12:22;;;;;;;3.20;2.90;;;22.30;99.90;;;;;;5136020;27;20169;-78
2023/08/12 09:14:48;;;;;;;3.37;2.60;;;22.30;99.90;;;;;;5156846;27;20157;-78
2023/08/12 09:17:14;;;;;;;3.43;2.80;;;22.30;99.90;;;;;;5137958;27;20197;-76
2023/08/12 09:19:40;;;;;;;2.90;2.77;;;22.30;99.90;;;;;;5136281;27;20169;-77
2023/08/12 09:22:09;;;;;;;2.70;2.50;;;22.30;99.90;;;;;;5148689;27;20180;-77
2023/08/12 09:24:35;;;;;;;3.20;2.90;;;22.40;99.90;;;;;;5140705;27;20188;-77
2023/08/12 09:27:01;;;;;;;2.70;2.60;;;22.50;99.90;;;;;;5135694;27;20211;-76
2023/08/12 09:29:36;;;;;;;2.53;2.43;;;22.70;99.90;;;;;;5135780;27;20169;-77
2023/08/12 09:32:12;;;;;;;2.92;2.72;;;22.80;99.90;;;;;;5143007;27;20168;-77
2023/08/12 09:35:01;;;;;;;2.75;2.55;;;22.90;99.90;;;;;;5139706;27;20164;-75
2023/08/12 09:37:27;;;;;;;3.05;2.85;;;23.00;99.90;;;;;;5135234;27;20170;-77
2023/08/12 09:39:53;;;;;;;3.10;2.90;;;23.10;99.90;;;;;;5135034;27;20248;-77
2023/08/12 09:42:19;;;;;;;3.42;3.22;;;23.10;99.90;;;;;;5135999;27;20226;-78
2023/08/12 09:44:46;;;;;;;3.25;3.05;;;23.20;99.90;;;;;;5135081;27;20540;-76
2023/08/12 09:47:15;;;;;;;4.32;2.50;;;23.20;99.90;;;;;;5134921;27;20161;-76
2023/08/12 09:49:41;;;;;;;3.90;2.42;;;23.30;99.90;;;;;;5134959;27;20246;-76
2023/08/12 09:52:08;;;;;;;2.80;2.70;;;23.30;99.90;;;;;;5134633;27;20573;-76
2023/08/12 09:54:35;;;;;;;3.30;3.10;;;23.40;99.90;;;;;;5139944;27;20188;-76
2023/08/12 09:57:02;;;;;;;4.25;2.80;;;23.40;99.90;;;;;;5138273;28;20260;-78
2023/08/12 09:59:32;;;;;;;3.50;3.30;;;23.40;99.90;;;;;;5134699;27;20169;-76
2023/08/12 10:01:59;;;;;;;3.10;2.90;;;23.50;99.90;;;;;;5135294;27;20651;-76
2023/08/12 10:04:29;;;;;;;3.20;3.00;;;23.50;99.90;;;;;;5134973;27;20169;-77
2023/08/12 10:06:56;;;;;;;3.03;2.83;;;23.60;99.90;;;;;;5134721;27;20162;-77
2023/08/12 10:09:22;;;;;;;2.88;2.78;;;23.70;99.90;;;;;;5134639;27;20588;-77
2023/08/12 10:11:50;;;;;;;2.83;2.72;;;23.70;99.90;;;;;;5135312;27;20184;-77
2023/08/12 10:14:16;;;;;;;4.50;2.80;;;23.80;99.90;;;;;;5134708;27;20165;-77
2023/08/12 10:16:45;;;;;;;3.70;2.70;;;23.80;99.90;;;;;;5136631;27;20697;-77
2023/08/12 10:19:12;;;;;;;3.30;3.00;;;23.80;99.90;;;;;;5136261;27;20257;-77
2023/08/12 10:21:38;;;;;;;3.05;2.95;;;23.70;99.90;;;;;;5135488;27;20169;-78
2023/08/12 10:24:06;;;;;;;2.97;2.78;;;23.70;99.90;;;;;;5135752;27;20513;-78
2023/08/12 10:26:32;;;;;;;3.10;2.90;;;23.70;99.90;;;;;;5134083;27;20273;-77
2023/08/12 10:29:00;;;;;;;3.47;3.05;;;23.70;99.90;;;;;;5133192;28;20169;-79
2023/08/12 10:31:30;;;;;;;2.47;2.38;;;23.80;99.90;;;;;;5134496;27;20185;-78
2023/08/12 10:33:58;;;;;;;2.80;2.70;;;23.90;99.90;;;;;;5134759;27;20497;-79
2023/08/12 10:36:26;;;;;;;3.13;2.95;;;24.00;99.90;;;;;;5136080;27;20212;-78
2023/08/12 10:38:53;;;;;;;3.13;2.92;;;24.00;99.90;;;;;;5151534;27;20177;-77
2023/08/12 10:41:23;;;;;;;2.70;2.60;;;24.10;99.90;;;;;;5136911;27;20173;-78
2023/08/12 10:44:01;;;;;;;3.50;3.30;;;24.20;99.90;;;;;;5137786;27;20169;-77
2023/08/12 10:46:35;;;;;;;2.72;2.63;;;24.20;99.90;;;;;;5138476;27;20175;-78
2023/08/12 10:49:08;;;;;;;2.80;2.70;;;24.30;99.90;;;;;;5143482;27;20197;-81
2023/08/12 10:51:53;;;;;;;2.40;2.30;;;24.30;99.90;;;;;;5156929;27;20188;-78
2023/08/12 10:54:26;;;;;;;2.80;2.60;;;24.30;99.90;;;;;;5145882;27;20173;-77
2023/08/12 10:57:11;;;;;;;2.30;2.20;;;24.40;99.90;;;;;;5144329;27;20216;-77
2023/08/12 10:59:46;;;;;;;2.88;2.67;;;24.40;99.90;;;;;;5139019;27;20153;-79
2023/08/12 11:02:23;;;;;;;2.80;2.60;;;24.40;99.90;;;;;;5138914;27;20173;-78
2023/08/12 11:05:07;;;;;;;2.63;2.50;;;24.40;99.90;;;;;;5143972;27;20161;-77
2023/08/12 11:07:43;;;;;;;3.03;2.63;;;24.50;99.90;;;;;;5144484;27;20190;-78
2023/08/12 11:10:14;;;;;;;2.60;2.40;;;24.40;99.90;;;;;;5138270;27;20172;-75
2023/08/12 11:12:45;;;;;;;2.70;2.60;;;24.30;99.90;;;;;;5138141;27;20178;-78
2023/08/12 11:15:12;;;;;;;2.83;2.72;;;24.30;99.90;;;;;;5137654;27;20165;-77
2023/08/12 11:17:41;;;;;;;2.80;2.60;;;24.30;99.90;;;;;;5138080;27;20169;-77
2023/08/12 11:20:10;;;;;;;2.67;2.58;;;24.40;99.90;;;;;;5137799;27;20177;-76
2023/08/12 11:22:43;;;;;;;2.78;2.65;;;24.50;99.90;;;;;;5137742;27;20245;-76
2023/08/12 11:25:12;;;;;;;2.70;2.60;;;24.50;99.90;;;;;;5137244;27;20616;-76
2023/08/12 11:27:48;;;;;;;2.70;2.50;;;24.60;99.90;;;;;;5137796;27;20173;-78
2023/08/12 11:30:19;;;;;;;3.58;3.38;;;24.60;99.90;;;;;;5144212;27;20184;-76
2023/08/12 11:32:47;;;;;;;2.60;2.40;;;24.70;99.90;;;;;;5141232;27;20600;-78
2023/08/12 11:35:15;;;;;;;2.63;2.53;;;24.60;99.90;;;;;;5136192;27;20173;-78
2023/08/12 11:37:42;;;;;;;2.47;2.38;;;24.60;99.90;;;;;;5137543;27;20506;-78
2023/08/12 11:40:10;;;;;;;2.65;2.53;;;24.70;99.90;;;;;;5137647;27;20200;-78
2023/08/12 11:42:40;;;;;;;2.33;2.22;;;24.80;99.90;;;;;;5137412;27;20205;-77
2023/08/12 11:45:07;;;;;;;2.97;2.42;;;24.80;99.90;;;;;;5145880;27;20670;-78
2023/08/12 11:47:38;;;;;;;2.80;2.58;;;24.90;99.90;;;;;;5144743;27;20208;-77
2023/08/12 11:50:08;;;;;;;2.40;2.30;;;24.90;99.90;;;;;;5137701;27;20165;-76
2023/08/12 11:52:35;;;;;;;2.05;2.05;;;24.80;99.90;;;;;;5137244;27;20261;-78
2023/08/12 11:55:01;;;;;;;2.40;2.30;;;24.80;99.90;;;;;;5136785;27;20175;-77
2023/08/12 11:57:28;;;;;;;2.58;2.47;;;24.70;99.90;;;;;;5137481;27;20173;-78
2023/08/12 11:59:59;;;;;;;2.10;2.00;;;24.80;99.90;;;;;;5136909;27;20200;-79
2023/08/12 12:02:25;;;;;;;2.45;2.35;;;24.80;99.90;;;;;;5137328;27;20556;-78
2023/08/12 12:04:53;;;;;;;2.58;2.47;;;24.90;99.90;;;;;;5136952;27;20181;-77
2023/08/12 12:07:24;;;;;;;2.50;2.40;;;24.90;99.90;;;;;;5137075;27;20158;-78
2023/08/12 12:09:55;;;;;;;2.42;2.33;;;25.00;99.90;;;;;;5137100;27;20189;-79
2023/08/12 12:12:27;;;;;;;2.45;2.35;;;25.00;99.90;;;;;;5136464;27;20173;-80
2023/08/12 12:14:56;;;;;;;3.33;3.13;;;25.00;99.90;;;;;;5140950;27;20244;-80
2023/08/12 12:17:23;;;;;;;2.95;2.67;;;25.00;99.90;;;;;;5147047;27;20205;-78
2023/08/12 12:19:56;;;;;;;2.95;2.75;;;25.10;99.90;;;;;;5141311;27;20164;-82
2023/08/12 12:22:27;;;;;;;2.65;2.45;;;25.10;99.90;;;;;;5137039;27;20173;-77
2023/08/12 12:24:53;;;;;;;2.28;2.17;;;25.00;99.90;;;;;;5140594;27;20169;-80
2023/08/12 12:27:19;;;;;;;2.60;2.50;;;25.10;99.90;;;;;;5155679;27;20177;-76
2023/08/12 12:29:45;;;;;;;2.80;2.60;;;25.10;99.90;;;;;;5136973;27;20293;-77
2023/08/12 12:32:11;;;;;;;3.90;2.40;;;25.10;99.90;;;;;;5136495;27;20165;-77
2023/08/12 12:34:38;;;;;;;2.63;2.45;;;25.10;99.90;;;;;;5136217;27;20173;-77
2023/08/12 12:37:03;;;;;;;3.17;2.90;;;25.20;99.90;;;;;;5136201;27;20192;-76
2023/08/12 12:39:32;;;;;;;2.50;2.40;;;25.30;99.90;;;;;;5136196;27;20521;-77
2023/08/12 12:41:59;;;;;;;2.25;2.15;;;25.20;99.90;;;;;;5136426;27;20177;-78
2023/08/12 12:44:25;;;;;;;2.97;2.40;;;25.20;99.90;;;;;;5135384;27;20624;-78
2023/08/12 12:46:51;;;;;;;2.67;2.47;;;25.20;99.90;;;;;;5141952;27;20184;-79
2023/08/12 12:49:17;;;;;;;2.50;2.40;;;25.20;99.90;;;;;;5147776;27;20170;-80